Rolinda, California
Current Conditions -  °F | °C
As of 9:53 AM on Saturday 25 Oct 2014 (Local Time) from KFAT Reporting Station
Broken Clouds Broken Clouds  
Wind Chill: 67°   Ceiling: 25000
Heat Index: 67°   Visibility: 9mi
Dew Point: 43°   Wind: 12mph
Humidity: 42%   Direction: 100°E
Pressure: 30.05"   Gusts: NA
Location:  36.6563°N, 119.904°W
Report Text: KFAT 251653Z 10010KT 9SM FEW150 BKN250 19/06 A3005 RMK AO2 SLP174 T01940061
Loading
Personal Weather Stations






























Interactive Weather Map
Tropical Storm Tracking
New forecast layout! Learn more

10-Day Weather Forecast

Advertisements
Track Severe Weather on mobile